sensor_id;sensor_type;location;lat;lon;timestamp;P1;durP1;ratioP1;P2;durP2;ratioP2
6828;SDS011;17930;48.592;8.868;2022-10-16T00:00:31;2.07;;;1.67;;
6828;SDS011;17930;48.592;8.868;2022-10-16T00:02:58;2.40;;;1.80;;
6828;SDS011;17930;48.592;8.868;2022-10-16T00:05:25;1.83;;;1.50;;
6828;SDS011;17930;48.592;8.868;2022-10-16T00:07:51;4.70;;;1.90;;
6828;SDS011;17930;48.592;8.868;2022-10-16T00:10:18;2.50;;;1.63;;
6828;SDS011;17930;48.592;8.868;2022-10-16T00:12:45;4.10;;;2.63;;
6828;SDS011;17930;48.592;8.868;2022-10-16T00:15:13;3.70;;;2.00;;
6828;SDS011;17930;48.592;8.868;2022-10-16T00:17:40;2.57;;;1.67;;
6828;SDS011;17930;48.592;8.868;2022-10-16T00:20:07;2.23;;;1.67;;
6828;SDS011;17930;48.592;8.868;2022-10-16T00:22:34;2.77;;;1.87;;
6828;SDS011;17930;48.592;8.868;2022-10-16T00:25:01;2.70;;;1.73;;
6828;SDS011;17930;48.592;8.868;2022-10-16T00:27:27;2.10;;;1.87;;
6828;SDS011;17930;48.592;8.868;2022-10-16T00:29:54;4.07;;;2.00;;
6828;SDS011;17930;48.592;8.868;2022-10-16T00:32:22;5.03;;;1.97;;
6828;SDS011;17930;48.592;8.868;2022-10-16T00:34:49;3.60;;;1.93;;
6828;SDS011;17930;48.592;8.868;2022-10-16T00:37:15;2.07;;;1.83;;
6828;SDS011;17930;48.592;8.868;2022-10-16T00:39:42;4.83;;;2.30;;
6828;SDS011;17930;48.592;8.868;2022-10-16T00:42:09;3.67;;;1.90;;
6828;SDS011;17930;48.592;8.868;2022-10-16T00:44:42;2.93;;;2.07;;
6828;SDS011;17930;48.592;8.868;2022-10-16T00:47:11;3.53;;;2.20;;
6828;SDS011;17930;48.592;8.868;2022-10-16T00:49:43;7.77;;;2.17;;
6828;SDS011;17930;48.592;8.868;2022-10-16T00:52:10;2.97;;;1.87;;
6828;SDS011;17930;48.592;8.868;2022-10-16T00:54:38;2.90;;;1.90;;
6828;SDS011;17930;48.592;8.868;2022-10-16T00:57:05;4.83;;;2.67;;
6828;SDS011;17930;48.592;8.868;2022-10-16T00:59:34;4.87;;;3.27;;
6828;SDS011;17930;48.592;8.868;2022-10-16T01:02:03;6.30;;;3.87;;
6828;SDS011;17930;48.592;8.868;2022-10-16T01:04:31;6.87;;;4.17;;
6828;SDS011;17930;48.592;8.868;2022-10-16T01:07:04;4.40;;;3.27;;
6828;SDS011;17930;48.592;8.868;2022-10-16T01:09:37;4.83;;;3.20;;
6828;SDS011;17930;48.592;8.868;2022-10-16T01:12:14;6.43;;;2.90;;
6828;SDS011;17930;48.592;8.868;2022-10-16T01:14:47;3.27;;;2.30;;
6828;SDS011;17930;48.592;8.868;2022-10-16T01:17:18;3.50;;;2.20;;
6828;SDS011;17930;48.592;8.868;2022-10-16T01:20:03;4.70;;;2.20;;
6828;SDS011;17930;48.592;8.868;2022-10-16T01:22:42;3.67;;;2.40;;
6828;SDS011;17930;48.592;8.868;2022-10-16T01:25:17;2.40;;;2.10;;
6828;SDS011;17930;48.592;8.868;2022-10-16T01:27:53;3.47;;;2.53;;
6828;SDS011;17930;48.592;8.868;2022-10-16T01:30:21;5.97;;;2.43;;
6828;SDS011;17930;48.592;8.868;2022-10-16T01:32:53;4.77;;;2.40;;
6828;SDS011;17930;48.592;8.868;2022-10-16T01:35:23;2.67;;;2.10;;
6828;SDS011;17930;48.592;8.868;2022-10-16T01:37:55;3.30;;;2.40;;
6828;SDS011;17930;48.592;8.868;2022-10-16T01:40:28;2.77;;;2.10;;
6828;SDS011;17930;48.592;8.868;2022-10-16T01:43:00;5.23;;;2.33;;
6828;SDS011;17930;48.592;8.868;2022-10-16T01:45:31;3.87;;;2.30;;
6828;SDS011;17930;48.592;8.868;2022-10-16T01:47:59;3.47;;;2.10;;
6828;SDS011;17930;48.592;8.868;2022-10-16T01:50:29;4.13;;;2.40;;
6828;SDS011;17930;48.592;8.868;2022-10-16T01:53:00;3.77;;;2.20;;
6828;SDS011;17930;48.592;8.868;2022-10-16T01:55:30;2.67;;;2.00;;
6828;SDS011;17930;48.592;8.868;2022-10-16T01:58:01;2.67;;;2.10;;
6828;SDS011;17930;48.592;8.868;2022-10-16T02:00:31;2.90;;;2.50;;
6828;SDS011;17930;48.592;8.868;2022-10-16T02:02:58;3.63;;;2.60;;
6828;SDS011;17930;48.592;8.868;2022-10-16T02:05:28;5.50;;;2.07;;
6828;SDS011;17930;48.592;8.868;2022-10-16T02:08:00;2.13;;;1.90;;
6828;SDS011;17930;48.592;8.868;2022-10-16T02:10:27;2.07;;;1.87;;
6828;SDS011;17930;48.592;8.868;2022-10-16T02:12:57;2.47;;;1.90;;
6828;SDS011;17930;48.592;8.868;2022-10-16T02:15:31;2.53;;;2.00;;
6828;SDS011;17930;48.592;8.868;2022-10-16T02:17:58;5.10;;;1.90;;
6828;SDS011;17930;48.592;8.868;2022-10-16T02:20:26;3.87;;;2.00;;
6828;SDS011;17930;48.592;8.868;2022-10-16T02:22:55;2.43;;;2.00;;
6828;SDS011;17930;48.592;8.868;2022-10-16T02:25:24;3.17;;;1.70;;
6828;SDS011;17930;48.592;8.868;2022-10-16T02:27:57;3.20;;;1.73;;
6828;SDS011;17930;48.592;8.868;2022-10-16T02:30:29;2.27;;;2.00;;
6828;SDS011;17930;48.592;8.868;2022-10-16T02:33:01;2.53;;;1.73;;
6828;SDS011;17930;48.592;8.868;2022-10-16T02:35:31;1.50;;;1.40;;
6828;SDS011;17930;48.592;8.868;2022-10-16T02:37:59;2.23;;;1.40;;
6828;SDS011;17930;48.592;8.868;2022-10-16T02:40:25;2.23;;;1.80;;
6828;SDS011;17930;48.592;8.868;2022-10-16T02:42:53;3.43;;;1.90;;
6828;SDS011;17930;48.592;8.868;2022-10-16T02:45:21;4.97;;;1.50;;
6828;SDS011;17930;48.592;8.868;2022-10-16T02:47:50;2.47;;;1.77;;
6828;SDS011;17930;48.592;8.868;2022-10-16T02:50:16;2.23;;;1.30;;
6828;SDS011;17930;48.592;8.868;2022-10-16T02:52:43;1.77;;;1.40;;
6828;SDS011;17930;48.592;8.868;2022-10-16T02:55:10;2.07;;;1.40;;
6828;SDS011;17930;48.592;8.868;2022-10-16T02:57:37;1.40;;;1.30;;
6828;SDS011;17930;48.592;8.868;2022-10-16T03:00:05;1.70;;;1.60;;
6828;SDS011;17930;48.592;8.868;2022-10-16T03:02:33;3.20;;;2.00;;
6828;SDS011;17930;48.592;8.868;2022-10-16T03:05:01;1.57;;;1.47;;
6828;SDS011;17930;48.592;8.868;2022-10-16T03:07:28;1.50;;;1.40;;
6828;SDS011;17930;48.592;8.868;2022-10-16T03:09:54;2.70;;;1.57;;
6828;SDS011;17930;48.592;8.868;2022-10-16T03:12:21;2.00;;;1.80;;
6828;SDS011;17930;48.592;8.868;2022-10-16T03:14:48;4.10;;;1.53;;
6828;SDS011;17930;48.592;8.868;2022-10-16T03:17:15;1.80;;;1.47;;
6828;SDS011;17930;48.592;8.868;2022-10-16T03:19:42;1.40;;;1.27;;
6828;SDS011;17930;48.592;8.868;2022-10-16T03:22:10;2.63;;;1.20;;
6828;SDS011;17930;48.592;8.868;2022-10-16T03:24:37;5.00;;;1.67;;
6828;SDS011;17930;48.592;8.868;2022-10-16T03:27:04;2.30;;;1.50;;
6828;SDS011;17930;48.592;8.868;2022-10-16T03:29:31;1.83;;;1.50;;
6828;SDS011;17930;48.592;8.868;2022-10-16T03:31:58;1.50;;;1.27;;
6828;SDS011;17930;48.592;8.868;2022-10-16T03:34:25;1.63;;;1.30;;
6828;SDS011;17930;48.592;8.868;2022-10-16T03:36:51;2.07;;;1.43;;
6828;SDS011;17930;48.592;8.868;2022-10-16T03:39:19;1.67;;;1.30;;
6828;SDS011;17930;48.592;8.868;2022-10-16T03:41:46;2.70;;;1.33;;
6828;SDS011;17930;48.592;8.868;2022-10-16T03:44:16;1.63;;;1.20;;
6828;SDS011;17930;48.592;8.868;2022-10-16T03:46:43;1.80;;;1.30;;
6828;SDS011;17930;48.592;8.868;2022-10-16T03:49:09;2.60;;;1.40;;
6828;SDS011;17930;48.592;8.868;2022-10-16T03:51:36;2.60;;;1.50;;
6828;SDS011;17930;48.592;8.868;2022-10-16T03:54:03;4.13;;;1.50;;
6828;SDS011;17930;48.592;8.868;2022-10-16T03:56:31;1.53;;;1.40;;
6828;SDS011;17930;48.592;8.868;2022-10-16T03:58:58;2.43;;;1.70;;
6828;SDS011;17930;48.592;8.868;2022-10-16T04:01:24;1.47;;;1.30;;
6828;SDS011;17930;48.592;8.868;2022-10-16T04:03:51;1.67;;;1.57;;
6828;SDS011;17930;48.592;8.868;2022-10-16T04:06:18;4.43;;;1.50;;
6828;SDS011;17930;48.592;8.868;2022-10-16T04:08:44;2.40;;;1.37;;
6828;SDS011;17930;48.592;8.868;2022-10-16T04:11:11;1.20;;;1.10;;
6828;SDS011;17930;48.592;8.868;2022-10-16T04:13:39;2.87;;;1.50;;
6828;SDS011;17930;48.592;8.868;2022-10-16T04:16:06;1.43;;;1.33;;
6828;SDS011;17930;48.592;8.868;2022-10-16T04:18:33;3.67;;;1.57;;
6828;SDS011;17930;48.592;8.868;2022-10-16T04:21:02;1.87;;;1.40;;
6828;SDS011;17930;48.592;8.868;2022-10-16T04:23:29;1.23;;;1.13;;
6828;SDS011;17930;48.592;8.868;2022-10-16T04:25:56;2.57;;;1.27;;
6828;SDS011;17930;48.592;8.868;2022-10-16T04:28:22;4.40;;;1.50;;
6828;SDS011;17930;48.592;8.868;2022-10-16T04:30:50;1.57;;;1.47;;
6828;SDS011;17930;48.592;8.868;2022-10-16T04:33:17;1.10;;;1.00;;
6828;SDS011;17930;48.592;8.868;2022-10-16T04:35:44;1.73;;;1.37;;
6828;SDS011;17930;48.592;8.868;2022-10-16T04:38:10;1.33;;;1.23;;
6828;SDS011;17930;48.592;8.868;2022-10-16T04:40:37;3.03;;;1.30;;
6828;SDS011;17930;48.592;8.868;2022-10-16T04:43:04;1.53;;;1.30;;
6828;SDS011;17930;48.592;8.868;2022-10-16T04:45:32;3.20;;;1.20;;
6828;SDS011;17930;48.592;8.868;2022-10-16T04:48:00;1.47;;;1.37;;
6828;SDS011;17930;48.592;8.868;2022-10-16T04:50:27;2.90;;;1.40;;
6828;SDS011;17930;48.592;8.868;2022-10-16T04:52:53;2.33;;;1.30;;
6828;SDS011;17930;48.592;8.868;2022-10-16T04:55:20;1.83;;;1.20;;
6828;SDS011;17930;48.592;8.868;2022-10-16T04:57:47;1.53;;;1.27;;
6828;SDS011;17930;48.592;8.868;2022-10-16T05:00:13;1.70;;;1.20;;
6828;SDS011;17930;48.592;8.868;2022-10-16T05:02:40;1.33;;;1.20;;
6828;SDS011;17930;48.592;8.868;2022-10-16T05:05:08;2.43;;;1.50;;
6828;SDS011;17930;48.592;8.868;2022-10-16T05:07:35;3.10;;;1.67;;
6828;SDS011;17930;48.592;8.868;2022-10-16T05:10:02;1.53;;;1.20;;
6828;SDS011;17930;48.592;8.868;2022-10-16T05:12:29;2.83;;;1.20;;
6828;SDS011;17930;48.592;8.868;2022-10-16T05:14:55;3.33;;;1.13;;
6828;SDS011;17930;48.592;8.868;2022-10-16T05:17:23;1.50;;;1.30;;
6828;SDS011;17930;48.592;8.868;2022-10-16T05:19:50;4.17;;;1.37;;
6828;SDS011;17930;48.592;8.868;2022-10-16T05:22:18;3.07;;;1.37;;
6828;SDS011;17930;48.592;8.868;2022-10-16T05:24:45;1.63;;;1.23;;
6828;SDS011;17930;48.592;8.868;2022-10-16T05:27:12;2.07;;;1.50;;
6828;SDS011;17930;48.592;8.868;2022-10-16T05:29:44;1.43;;;1.23;;
6828;SDS011;17930;48.592;8.868;2022-10-16T05:32:11;2.90;;;1.53;;
6828;SDS011;17930;48.592;8.868;2022-10-16T05:34:37;3.13;;;1.37;;
6828;SDS011;17930;48.592;8.868;2022-10-16T05:37:04;1.60;;;1.50;;
6828;SDS011;17930;48.592;8.868;2022-10-16T05:39:32;1.63;;;1.40;;
6828;SDS011;17930;48.592;8.868;2022-10-16T05:41:59;2.83;;;1.43;;
6828;SDS011;17930;48.592;8.868;2022-10-16T05:44:25;1.50;;;1.40;;
6828;SDS011;17930;48.592;8.868;2022-10-16T05:46:52;5.47;;;1.17;;
6828;SDS011;17930;48.592;8.868;2022-10-16T05:49:19;1.70;;;1.37;;
6828;SDS011;17930;48.592;8.868;2022-10-16T05:51:46;3.70;;;1.50;;
6828;SDS011;17930;48.592;8.868;2022-10-16T05:54:12;2.20;;;1.80;;
6828;SDS011;17930;48.592;8.868;2022-10-16T05:56:40;2.17;;;1.70;;
6828;SDS011;17930;48.592;8.868;2022-10-16T05:59:07;3.40;;;1.50;;
6828;SDS011;17930;48.592;8.868;2022-10-16T06:01:34;6.00;;;1.83;;
6828;SDS011;17930;48.592;8.868;2022-10-16T06:04:00;2.63;;;1.60;;
6828;SDS011;17930;48.592;8.868;2022-10-16T06:06:27;2.00;;;1.63;;
6828;SDS011;17930;48.592;8.868;2022-10-16T06:08:56;1.93;;;1.27;;
6828;SDS011;17930;48.592;8.868;2022-10-16T06:11:26;3.77;;;1.43;;
6828;SDS011;17930;48.592;8.868;2022-10-16T06:13:56;4.03;;;1.70;;
6828;SDS011;17930;48.592;8.868;2022-10-16T06:16:25;1.97;;;1.57;;
6828;SDS011;17930;48.592;8.868;2022-10-16T06:18:52;3.03;;;1.37;;
6828;SDS011;17930;48.592;8.868;2022-10-16T06:21:21;1.70;;;1.50;;
6828;SDS011;17930;48.592;8.868;2022-10-16T06:23:50;3.03;;;1.17;;
6828;SDS011;17930;48.592;8.868;2022-10-16T06:26:18;1.50;;;1.40;;
6828;SDS011;17930;48.592;8.868;2022-10-16T06:28:46;2.83;;;1.40;;
6828;SDS011;17930;48.592;8.868;2022-10-16T06:31:14;1.47;;;1.13;;
6828;SDS011;17930;48.592;8.868;2022-10-16T06:33:42;3.70;;;1.40;;
6828;SDS011;17930;48.592;8.868;2022-10-16T06:36:09;1.90;;;1.50;;
6828;SDS011;17930;48.592;8.868;2022-10-16T06:38:37;1.53;;;1.23;;
6828;SDS011;17930;48.592;8.868;2022-10-16T06:41:05;1.53;;;1.30;;
6828;SDS011;17930;48.592;8.868;2022-10-16T06:43:33;1.33;;;1.23;;
6828;SDS011;17930;48.592;8.868;2022-10-16T06:46:01;3.30;;;1.50;;
6828;SDS011;17930;48.592;8.868;2022-10-16T06:48:30;2.10;;;1.57;;
6828;SDS011;17930;48.592;8.868;2022-10-16T06:50:57;1.70;;;1.40;;
6828;SDS011;17930;48.592;8.868;2022-10-16T06:53:25;1.93;;;1.50;;
6828;SDS011;17930;48.592;8.868;2022-10-16T06:55:53;1.80;;;1.20;;
6828;SDS011;17930;48.592;8.868;2022-10-16T06:58:20;1.87;;;1.50;;
6828;SDS011;17930;48.592;8.868;2022-10-16T07:00:47;3.50;;;1.60;;
6828;SDS011;17930;48.592;8.868;2022-10-16T07:03:14;3.00;;;1.70;;
6828;SDS011;17930;48.592;8.868;2022-10-16T07:05:42;3.90;;;1.37;;
6828;SDS011;17930;48.592;8.868;2022-10-16T07:08:09;5.13;;;1.53;;
6828;SDS011;17930;48.592;8.868;2022-10-16T07:10:35;4.63;;;1.40;;
6828;SDS011;17930;48.592;8.868;2022-10-16T07:13:02;1.50;;;1.40;;
6828;SDS011;17930;48.592;8.868;2022-10-16T07:15:29;3.03;;;1.47;;
6828;SDS011;17930;48.592;8.868;2022-10-16T07:17:56;1.73;;;1.50;;
6828;SDS011;17930;48.592;8.868;2022-10-16T07:20:22;1.87;;;1.60;;
6828;SDS011;17930;48.592;8.868;2022-10-16T07:22:51;3.60;;;2.07;;
6828;SDS011;17930;48.592;8.868;2022-10-16T07:25:18;3.93;;;2.07;;
6828;SDS011;17930;48.592;8.868;2022-10-16T07:27:44;4.30;;;1.63;;
6828;SDS011;17930;48.592;8.868;2022-10-16T07:30:11;2.20;;;1.80;;
6828;SDS011;17930;48.592;8.868;2022-10-16T07:32:38;2.10;;;0.87;;
6828;SDS011;17930;48.592;8.868;2022-10-16T07:35:05;4.13;;;1.50;;
6828;SDS011;17930;48.592;8.868;2022-10-16T07:37:32;1.57;;;1.10;;
6828;SDS011;17930;48.592;8.868;2022-10-16T07:40:01;3.77;;;1.50;;
6828;SDS011;17930;48.592;8.868;2022-10-16T07:42:27;5.90;;;1.50;;
6828;SDS011;17930;48.592;8.868;2022-10-16T07:44:54;1.33;;;1.10;;
6828;SDS011;17930;48.592;8.868;2022-10-16T07:47:21;3.07;;;1.20;;
6828;SDS011;17930;48.592;8.868;2022-10-16T07:49:47;3.90;;;1.40;;
6828;SDS011;17930;48.592;8.868;2022-10-16T07:52:14;1.90;;;1.50;;
6828;SDS011;17930;48.592;8.868;2022-10-16T07:54:41;1.67;;;1.13;;
6828;SDS011;17930;48.592;8.868;2022-10-16T07:57:09;2.23;;;1.40;;
6828;SDS011;17930;48.592;8.868;2022-10-16T07:59:36;1.10;;;1.00;;
6828;SDS011;17930;48.592;8.868;2022-10-16T08:02:02;4.17;;;1.07;;
6828;SDS011;17930;48.592;8.868;2022-10-16T08:04:29;1.70;;;1.20;;
6828;SDS011;17930;48.592;8.868;2022-10-16T08:06:56;2.30;;;1.23;;
6828;SDS011;17930;48.592;8.868;2022-10-16T08:09:23;1.03;;;0.93;;
6828;SDS011;17930;48.592;8.868;2022-10-16T08:11:49;1.53;;;1.23;;
6828;SDS011;17930;48.592;8.868;2022-10-16T08:14:19;1.00;;;0.90;;
6828;SDS011;17930;48.592;8.868;2022-10-16T08:16:45;3.90;;;1.40;;
6828;SDS011;17930;48.592;8.868;2022-10-16T08:19:12;2.23;;;1.77;;
6828;SDS011;17930;48.592;8.868;2022-10-16T08:21:40;3.00;;;1.73;;
6828;SDS011;17930;48.592;8.868;2022-10-16T08:24:07;2.00;;;1.80;;
6828;SDS011;17930;48.592;8.868;2022-10-16T08:26:34;1.50;;;1.30;;
6828;SDS011;17930;48.592;8.868;2022-10-16T08:29:01;1.30;;;1.20;;
6828;SDS011;17930;48.592;8.868;2022-10-16T08:31:30;2.80;;;1.50;;
6828;SDS011;17930;48.592;8.868;2022-10-16T08:33:57;1.80;;;1.30;;
6828;SDS011;17930;48.592;8.868;2022-10-16T08:36:27;1.93;;;1.20;;
6828;SDS011;17930;48.592;8.868;2022-10-16T08:38:54;1.33;;;1.10;;
6828;SDS011;17930;48.592;8.868;2022-10-16T08:41:27;3.60;;;1.20;;
6828;SDS011;17930;48.592;8.868;2022-10-16T08:44:51;1.90;;;1.40;;
6828;SDS011;17930;48.592;8.868;2022-10-16T08:47:47;1.60;;;1.30;;
6828;SDS011;17930;48.592;8.868;2022-10-16T08:50:31;1.93;;;1.43;;
6828;SDS011;17930;48.592;8.868;2022-10-16T08:52:59;2.03;;;1.20;;
6828;SDS011;17930;48.592;8.868;2022-10-16T08:55:30;3.17;;;1.43;;
6828;SDS011;17930;48.592;8.868;2022-10-16T08:58:01;2.40;;;1.20;;
6828;SDS011;17930;48.592;8.868;2022-10-16T09:00:28;1.40;;;1.00;;
6828;SDS011;17930;48.592;8.868;2022-10-16T09:02:59;1.63;;;1.30;;
6828;SDS011;17930;48.592;8.868;2022-10-16T09:05:44;2.60;;;1.53;;
6828;SDS011;17930;48.592;8.868;2022-10-16T09:08:32;2.57;;;1.23;;
6828;SDS011;17930;48.592;8.868;2022-10-16T09:11:09;1.20;;;1.10;;
6828;SDS011;17930;48.592;8.868;2022-10-16T09:13:47;1.70;;;1.37;;
6828;SDS011;17930;48.592;8.868;2022-10-16T09:16:22;1.83;;;1.40;;
6828;SDS011;17930;48.592;8.868;2022-10-16T09:18:57;3.93;;;1.40;;
6828;SDS011;17930;48.592;8.868;2022-10-16T09:21:32;1.30;;;1.20;;
6828;SDS011;17930;48.592;8.868;2022-10-16T09:24:06;1.20;;;1.07;;
6828;SDS011;17930;48.592;8.868;2022-10-16T09:26:40;1.13;;;0.90;;
6828;SDS011;17930;48.592;8.868;2022-10-16T09:29:08;2.00;;;1.20;;
6828;SDS011;17930;48.592;8.868;2022-10-16T09:31:37;1.77;;;1.20;;
6828;SDS011;17930;48.592;8.868;2022-10-16T09:34:06;0.70;;;0.70;;
6828;SDS011;17930;48.592;8.868;2022-10-16T09:36:39;2.17;;;1.47;;
6828;SDS011;17930;48.592;8.868;2022-10-16T09:39:09;1.97;;;1.10;;
6828;SDS011;17930;48.592;8.868;2022-10-16T09:41:37;2.83;;;1.20;;
6828;SDS011;17930;48.592;8.868;2022-10-16T09:44:06;1.40;;;1.20;;
6828;SDS011;17930;48.592;8.868;2022-10-16T09:46:47;1.20;;;1.10;;
6828;SDS011;17930;48.592;8.868;2022-10-16T09:49:21;2.47;;;1.20;;
6828;SDS011;17930;48.592;8.868;2022-10-16T09:51:50;1.73;;;1.00;;
6828;SDS011;17930;48.592;8.868;2022-10-16T09:54:28;3.87;;;1.10;;
6828;SDS011;17930;48.592;8.868;2022-10-16T09:57:03;1.40;;;1.30;;
6828;SDS011;17930;48.592;8.868;2022-10-16T09:59:31;2.47;;;1.00;;
6828;SDS011;17930;48.592;8.868;2022-10-16T10:02:00;3.93;;;1.20;;
6828;SDS011;17930;48.592;8.868;2022-10-16T10:04:38;1.50;;;1.10;;
6828;SDS011;17930;48.592;8.868;2022-10-16T10:07:17;3.90;;;1.60;;
6828;SDS011;17930;48.592;8.868;2022-10-16T10:09:45;2.27;;;1.53;;
6828;SDS011;17930;48.592;8.868;2022-10-16T10:12:19;4.93;;;1.73;;
6828;SDS011;17930;48.592;8.868;2022-10-16T10:14:48;4.70;;;2.30;;
6828;SDS011;17930;48.592;8.868;2022-10-16T10:17:17;3.03;;;1.77;;
6828;SDS011;17930;48.592;8.868;2022-10-16T10:19:48;2.60;;;1.40;;
6828;SDS011;17930;48.592;8.868;2022-10-16T10:22:17;3.80;;;1.17;;
6828;SDS011;17930;48.592;8.868;2022-10-16T10:24:55;2.17;;;1.03;;
6828;SDS011;17930;48.592;8.868;2022-10-16T10:27:25;1.70;;;1.37;;
6828;SDS011;17930;48.592;8.868;2022-10-16T10:30:03;3.17;;;1.40;;
6828;SDS011;17930;48.592;8.868;2022-10-16T10:32:38;3.87;;;1.33;;
6828;SDS011;17930;48.592;8.868;2022-10-16T10:35:15;3.47;;;1.17;;
6828;SDS011;17930;48.592;8.868;2022-10-16T10:37:56;1.47;;;1.17;;
6828;SDS011;17930;48.592;8.868;2022-10-16T10:40:39;1.87;;;0.93;;
6828;SDS011;17930;48.592;8.868;2022-10-16T10:43:25;4.13;;;1.00;;
6828;SDS011;17930;48.592;8.868;2022-10-16T10:46:07;1.33;;;1.20;;
6828;SDS011;17930;48.592;8.868;2022-10-16T10:48:46;2.03;;;1.50;;
6828;SDS011;17930;48.592;8.868;2022-10-16T10:51:30;1.40;;;1.30;;
6828;SDS011;17930;48.592;8.868;2022-10-16T10:54:07;1.10;;;1.00;;
6828;SDS011;17930;48.592;8.868;2022-10-16T10:56:45;1.30;;;1.17;;
6828;SDS011;17930;48.592;8.868;2022-10-16T10:59:25;3.10;;;1.17;;
6828;SDS011;17930;48.592;8.868;2022-10-16T11:01:59;1.27;;;0.93;;
6828;SDS011;17930;48.592;8.868;2022-10-16T11:04:34;2.70;;;0.90;;
6828;SDS011;17930;48.592;8.868;2022-10-16T11:07:15;1.17;;;0.80;;
6828;SDS011;17930;48.592;8.868;2022-10-16T11:09:47;1.07;;;0.93;;
6828;SDS011;17930;48.592;8.868;2022-10-16T11:12:18;3.20;;;1.13;;
6828;SDS011;17930;48.592;8.868;2022-10-16T11:14:48;1.33;;;0.90;;
6828;SDS011;17930;48.592;8.868;2022-10-16T11:17:22;3.37;;;1.00;;
6828;SDS011;17930;48.592;8.868;2022-10-16T11:19:52;2.60;;;1.07;;
6828;SDS011;17930;48.592;8.868;2022-10-16T11:22:25;2.03;;;1.40;;
6828;SDS011;17930;48.592;8.868;2022-10-16T11:24:59;1.20;;;1.10;;
6828;SDS011;17930;48.592;8.868;2022-10-16T11:27:57;1.30;;;1.17;;
6828;SDS011;17930;48.592;8.868;2022-10-16T11:30:28;4.17;;;1.10;;
6828;SDS011;17930;48.592;8.868;2022-10-16T11:33:00;1.27;;;1.17;;
6828;SDS011;17930;48.592;8.868;2022-10-16T11:35:38;1.70;;;1.00;;
6828;SDS011;17930;48.592;8.868;2022-10-16T11:38:12;3.60;;;1.10;;
6828;SDS011;17930;48.592;8.868;2022-10-16T11:40:47;1.47;;;0.97;;
6828;SDS011;17930;48.592;8.868;2022-10-16T11:43:19;0.90;;;0.90;;
6828;SDS011;17930;48.592;8.868;2022-10-16T11:45:52;1.97;;;1.00;;
6828;SDS011;17930;48.592;8.868;2022-10-16T11:48:23;1.30;;;1.07;;
6828;SDS011;17930;48.592;8.868;2022-10-16T11:50:57;2.37;;;1.03;;
6828;SDS011;17930;48.592;8.868;2022-10-16T11:53:53;1.03;;;1.00;;
6828;SDS011;17930;48.592;8.868;2022-10-16T11:56:23;1.37;;;1.10;;
6828;SDS011;17930;48.592;8.868;2022-10-16T11:58:52;3.77;;;0.90;;
6828;SDS011;17930;48.592;8.868;2022-10-16T12:01:27;1.23;;;0.80;;
6828;SDS011;17930;48.592;8.868;2022-10-16T12:04:02;1.23;;;1.07;;
6828;SDS011;17930;48.592;8.868;2022-10-16T12:06:40;0.90;;;0.90;;
6828;SDS011;17930;48.592;8.868;2022-10-16T12:09:14;1.27;;;1.10;;
6828;SDS011;17930;48.592;8.868;2022-10-16T12:11:49;1.83;;;1.10;;
6828;SDS011;17930;48.592;8.868;2022-10-16T12:14:20;3.50;;;1.10;;
6828;SDS011;17930;48.592;8.868;2022-10-16T12:17:00;2.17;;;0.90;;
6828;SDS011;17930;48.592;8.868;2022-10-16T12:19:30;0.90;;;0.80;;
6828;SDS011;17930;48.592;8.868;2022-10-16T12:21:59;1.70;;;0.97;;
6828;SDS011;17930;48.592;8.868;2022-10-16T12:24:31;0.87;;;0.87;;
6828;SDS011;17930;48.592;8.868;2022-10-16T12:27:00;2.87;;;1.00;;
6828;SDS011;17930;48.592;8.868;2022-10-16T12:29:30;1.93;;;1.17;;
6828;SDS011;17930;48.592;8.868;2022-10-16T12:32:00;1.70;;;1.13;;
6828;SDS011;17930;48.592;8.868;2022-10-16T12:34:29;2.07;;;1.03;;
6828;SDS011;17930;48.592;8.868;2022-10-16T12:37:08;2.07;;;1.30;;
6828;SDS011;17930;48.592;8.868;2022-10-16T12:39:40;1.37;;;1.20;;
6828;SDS011;17930;48.592;8.868;2022-10-16T12:42:20;1.20;;;0.97;;
6828;SDS011;17930;48.592;8.868;2022-10-16T12:44:49;1.17;;;1.07;;
6828;SDS011;17930;48.592;8.868;2022-10-16T12:47:19;0.97;;;0.97;;
6828;SDS011;17930;48.592;8.868;2022-10-16T12:49:49;1.00;;;0.93;;
6828;SDS011;17930;48.592;8.868;2022-10-16T12:52:27;0.90;;;0.90;;
6828;SDS011;17930;48.592;8.868;2022-10-16T12:54:57;3.37;;;1.07;;
6828;SDS011;17930;48.592;8.868;2022-10-16T12:57:32;3.40;;;1.10;;
6828;SDS011;17930;48.592;8.868;2022-10-16T13:00:10;3.50;;;1.20;;
6828;SDS011;17930;48.592;8.868;2022-10-16T13:03:00;1.90;;;1.13;;
6828;SDS011;17930;48.592;8.868;2022-10-16T13:05:50;2.37;;;0.93;;
6828;SDS011;17930;48.592;8.868;2022-10-16T13:08:30;1.23;;;1.10;;
6828;SDS011;17930;48.592;8.868;2022-10-16T13:11:14;0.90;;;0.90;;
6828;SDS011;17930;48.592;8.868;2022-10-16T13:13:54;1.83;;;1.50;;
6828;SDS011;17930;48.592;8.868;2022-10-16T13:16:36;1.97;;;1.10;;
6828;SDS011;17930;48.592;8.868;2022-10-16T13:19:15;2.20;;;0.93;;
6828;SDS011;17930;48.592;8.868;2022-10-16T13:21:51;1.47;;;1.00;;
6828;SDS011;17930;48.592;8.868;2022-10-16T13:24:28;2.17;;;1.20;;
6828;SDS011;17930;48.592;8.868;2022-10-16T13:27:16;1.30;;;1.20;;
6828;SDS011;17930;48.592;8.868;2022-10-16T13:29:52;4.03;;;1.07;;
6828;SDS011;17930;48.592;8.868;2022-10-16T13:32:21;1.93;;;1.23;;
6828;SDS011;17930;48.592;8.868;2022-10-16T13:34:48;1.73;;;1.03;;
6828;SDS011;17930;48.592;8.868;2022-10-16T13:37:19;1.10;;;1.00;;
6828;SDS011;17930;48.592;8.868;2022-10-16T13:39:46;2.00;;;1.13;;
6828;SDS011;17930;48.592;8.868;2022-10-16T13:42:18;1.20;;;1.10;;
6828;SDS011;17930;48.592;8.868;2022-10-16T13:44:49;1.40;;;1.20;;
6828;SDS011;17930;48.592;8.868;2022-10-16T13:47:19;1.43;;;0.90;;
6828;SDS011;17930;48.592;8.868;2022-10-16T13:49:58;1.40;;;1.13;;
6828;SDS011;17930;48.592;8.868;2022-10-16T13:52:27;3.63;;;1.10;;
6828;SDS011;17930;48.592;8.868;2022-10-16T13:54:54;2.47;;;1.07;;
6828;SDS011;17930;48.592;8.868;2022-10-16T13:57:23;3.03;;;1.13;;
6828;SDS011;17930;48.592;8.868;2022-10-16T13:59:51;1.23;;;1.13;;
6828;SDS011;17930;48.592;8.868;2022-10-16T14:02:19;2.83;;;1.30;;
6828;SDS011;17930;48.592;8.868;2022-10-16T14:04:51;1.67;;;0.93;;
6828;SDS011;17930;48.592;8.868;2022-10-16T14:07:20;1.70;;;0.90;;
6828;SDS011;17930;48.592;8.868;2022-10-16T14:09:50;1.30;;;1.10;;
6828;SDS011;17930;48.592;8.868;2022-10-16T14:12:22;1.20;;;1.00;;
6828;SDS011;17930;48.592;8.868;2022-10-16T14:14:51;1.20;;;0.93;;
6828;SDS011;17930;48.592;8.868;2022-10-16T14:17:21;1.30;;;1.00;;
6828;SDS011;17930;48.592;8.868;2022-10-16T14:19:50;1.93;;;0.97;;
6828;SDS011;17930;48.592;8.868;2022-10-16T14:22:22;1.33;;;1.23;;
6828;SDS011;17930;48.592;8.868;2022-10-16T14:24:54;5.43;;;1.00;;
6828;SDS011;17930;48.592;8.868;2022-10-16T14:27:24;1.17;;;1.07;;
6828;SDS011;17930;48.592;8.868;2022-10-16T14:32:51;1.73;;;1.00;;
6828;SDS011;17930;48.592;8.868;2022-10-16T14:35:24;1.77;;;1.00;;
6828;SDS011;17930;48.592;8.868;2022-10-16T14:37:52;1.03;;;0.90;;
6828;SDS011;17930;48.592;8.868;2022-10-16T14:40:20;4.27;;;1.37;;
6828;SDS011;17930;48.592;8.868;2022-10-16T14:42:51;1.47;;;1.17;;
6828;SDS011;17930;48.592;8.868;2022-10-16T14:45:19;2.23;;;1.03;;
6828;SDS011;17930;48.592;8.868;2022-10-16T14:47:48;1.10;;;1.00;;
6828;SDS011;17930;48.592;8.868;2022-10-16T14:50:17;1.30;;;1.20;;
6828;SDS011;17930;48.592;8.868;2022-10-16T14:52:44;1.03;;;1.00;;
6828;SDS011;17930;48.592;8.868;2022-10-16T14:55:11;2.07;;;1.27;;
6828;SDS011;17930;48.592;8.868;2022-10-16T14:57:38;1.63;;;0.90;;
6828;SDS011;17930;48.592;8.868;2022-10-16T15:00:10;7.60;;;1.60;;
6828;SDS011;17930;48.592;8.868;2022-10-16T15:02:42;2.20;;;1.00;;
6828;SDS011;17930;48.592;8.868;2022-10-16T15:05:13;1.73;;;1.10;;
6828;SDS011;17930;48.592;8.868;2022-10-16T15:07:43;1.47;;;1.00;;
6828;SDS011;17930;48.592;8.868;2022-10-16T15:10:10;1.23;;;1.13;;
6828;SDS011;17930;48.592;8.868;2022-10-16T15:12:38;1.07;;;1.00;;
6828;SDS011;17930;48.592;8.868;2022-10-16T15:15:23;1.63;;;1.10;;
6828;SDS011;17930;48.592;8.868;2022-10-16T15:17:54;1.20;;;1.10;;
6828;SDS011;17930;48.592;8.868;2022-10-16T15:20:22;2.10;;;1.00;;
6828;SDS011;17930;48.592;8.868;2022-10-16T15:22:50;1.40;;;1.10;;